Time;durP1;ratioP1;P1;durP2;ratioP2;P2;SDS_P1;SDS_P2;PMS_P1;PMS_P2;Temp;Humidity;BMP_temperature;BMP_pressure;BME280_temperature;BME280_humidity;BME280_pressure;Samples;Min_cycle;Max_cycle;Signal;HPM_P1;HPM_P2
2022/07/11 00:00:09;;;;;;;1.58;0.80;;;15.60;99.90;;;;;;5032430;28;20026;-64
2022/07/11 00:02:35;;;;;;;1.00;0.88;;;15.60;99.90;;;;;;5033137;28;20599;-64
2022/07/11 00:05:04;;;;;;;1.23;0.80;;;15.70;99.90;;;;;;5032085;28;20033;-62
2022/07/11 00:07:30;;;;;;;0.80;0.60;;;15.70;99.90;;;;;;5043540;28;20116;-63
2022/07/11 00:09:55;;;;;;;6.13;0.80;;;15.70;99.90;;;;;;5033777;28;20053;-64
2022/07/11 00:12:21;;;;;;;0.98;0.80;;;15.60;99.90;;;;;;5027585;28;20090;-64
2022/07/11 00:14:48;;;;;;;4.05;0.90;;;15.60;99.90;;;;;;5032339;28;20498;-65
2022/07/11 00:17:14;;;;;;;1.23;0.75;;;15.50;99.90;;;;;;5034206;28;20413;-65
2022/07/11 00:19:39;;;;;;;1.45;1.00;;;15.60;99.90;;;;;;5034313;28;20123;-65
2022/07/11 00:22:06;;;;;;;0.70;0.70;;;15.60;99.90;;;;;;5033159;28;20036;-63
2022/07/11 00:24:32;;;;;;;1.85;0.90;;;15.50;99.90;;;;;;5031921;28;20495;-64
2022/07/11 00:26:58;;;;;;;2.58;0.70;;;15.50;99.90;;;;;;5034217;28;20033;-63
2022/07/11 00:29:23;;;;;;;1.00;0.70;;;15.50;99.90;;;;;;5036005;28;20025;-63
2022/07/11 00:31:49;;;;;;;1.77;1.00;;;15.50;99.90;;;;;;5035893;28;20421;-63
2022/07/11 00:34:15;;;;;;;2.35;1.08;;;15.40;99.90;;;;;;5034568;28;20042;-63
2022/07/11 00:36:41;;;;;;;2.47;0.80;;;15.40;99.90;;;;;;5031761;28;20044;-64
2022/07/11 00:39:07;;;;;;;0.93;0.60;;;15.50;99.90;;;;;;5036904;28;20025;-62
2022/07/11 00:41:33;;;;;;;1.50;0.60;;;15.40;99.90;;;;;;5038334;28;20068;-62
2022/07/11 00:44:01;;;;;;;3.08;0.85;;;15.40;99.90;;;;;;5038276;28;20095;-64
2022/07/11 00:46:28;;;;;;;0.70;0.60;;;15.30;99.90;;;;;;5029338;28;20052;-63
2022/07/11 00:48:54;;;;;;;1.15;0.90;;;15.30;99.90;;;;;;5040912;28;20097;-64
2022/07/11 00:51:22;;;;;;;2.63;0.90;;;15.20;99.90;;;;;;5023952;28;20477;-63
2022/07/11 00:53:53;;;;;;;1.48;1.10;;;15.10;99.90;;;;;;5031628;28;20377;-64
2022/07/11 00:56:24;;;;;;;0.90;0.70;;;15.10;99.90;;;;;;5032361;28;20036;-63
2022/07/11 00:58:51;;;;;;;1.08;0.80;;;15.10;99.90;;;;;;5024034;28;20026;-64
2022/07/11 01:01:18;;;;;;;1.05;0.90;;;15.10;99.90;;;;;;5036043;28;20136;-63
2022/07/11 01:03:44;;;;;;;2.15;0.82;;;15.10;99.90;;;;;;5035444;28;20022;-65
2022/07/11 01:06:10;;;;;;;0.88;0.68;;;15.00;99.90;;;;;;5037503;28;20045;-63
2022/07/11 01:08:37;;;;;;;1.35;0.80;;;15.00;99.90;;;;;;5038572;28;20021;-63
2022/07/11 01:11:05;;;;;;;1.38;1.00;;;15.00;99.90;;;;;;5038927;28;20034;-63
2022/07/11 01:13:31;;;;;;;1.27;0.70;;;14.90;99.90;;;;;;5035556;28;20083;-64
2022/07/11 01:16:14;;;;;;;1.00;0.90;;;14.90;99.90;;;;;;5030383;28;20416;-64
2022/07/11 01:18:54;;;;;;;1.95;1.23;;;14.90;99.90;;;;;;5031593;28;20028;-65
2022/07/11 01:21:30;;;;;;;1.27;0.70;;;14.90;99.90;;;;;;5038008;28;20079;-65
2022/07/11 01:24:01;;;;;;;2.78;1.10;;;14.80;99.90;;;;;;5034116;28;20112;-65
2022/07/11 01:26:27;;;;;;;1.10;1.00;;;14.80;99.90;;;;;;5032529;28;20064;-64
2022/07/11 01:28:53;;;;;;;1.88;1.17;;;14.70;99.90;;;;;;5033734;28;20025;-64
2022/07/11 01:31:19;;;;;;;1.63;0.90;;;14.70;99.90;;;;;;5034077;28;20029;-64
2022/07/11 01:33:45;;;;;;;1.70;0.90;;;14.70;99.90;;;;;;5031507;28;20067;-64
2022/07/11 01:36:12;;;;;;;1.20;0.70;;;14.70;99.90;;;;;;5041420;28;20053;-64
2022/07/11 01:38:39;;;;;;;0.93;0.80;;;14.70;99.90;;;;;;5027237;28;20088;-64
2022/07/11 01:41:05;;;;;;;1.45;0.95;;;14.70;99.90;;;;;;5034049;28;20119;-64
2022/07/11 01:43:31;;;;;;;3.42;1.10;;;14.60;99.90;;;;;;5043320;28;20033;-64
2022/07/11 01:45:57;;;;;;;1.42;0.77;;;14.60;99.90;;;;;;5035532;28;20221;-62
2022/07/11 01:48:23;;;;;;;0.80;0.80;;;14.50;99.90;;;;;;5030380;28;20461;-64
2022/07/11 01:50:49;;;;;;;1.10;0.95;;;14.50;99.90;;;;;;5032235;28;20033;-63
2022/07/11 01:53:15;;;;;;;4.45;1.00;;;14.50;99.90;;;;;;5018566;28;20118;-63
2022/07/11 01:55:41;;;;;;;1.25;0.88;;;14.50;99.90;;;;;;5026910;28;20049;-63
2022/07/11 01:58:07;;;;;;;0.85;0.80;;;14.40;99.90;;;;;;5021944;28;20393;-64
2022/07/11 02:00:33;;;;;;;2.65;1.20;;;14.40;99.90;;;;;;5028356;28;20021;-64
2022/07/11 02:02:58;;;;;;;2.05;1.20;;;14.40;99.90;;;;;;5028910;28;20381;-64
2022/07/11 02:05:24;;;;;;;1.73;1.20;;;14.40;99.90;;;;;;5035023;28;20120;-64
2022/07/11 02:10:34;;;;;;;1.02;0.77;;;14.40;99.90;;;;;;5035296;28;20547;-64
2022/07/11 02:13:00;;;;;;;3.10;1.75;;;14.30;99.90;;;;;;5031229;28;20033;-63
2022/07/11 02:15:27;;;;;;;3.60;1.77;;;14.20;99.90;;;;;;5028893;28;20390;-62
2022/07/11 02:17:52;;;;;;;1.80;1.25;;;14.10;99.90;;;;;;5036109;28;20044;-63
2022/07/11 02:20:19;;;;;;;1.33;0.98;;;14.00;99.90;;;;;;5031525;28;20049;-62
2022/07/11 02:22:45;;;;;;;3.17;0.80;;;14.10;99.90;;;;;;5030397;28;20029;-63
2022/07/11 02:25:11;;;;;;;1.55;0.90;;;14.00;99.90;;;;;;5031561;28;20029;-63
2022/07/11 02:27:37;;;;;;;1.23;0.77;;;14.10;99.90;;;;;;5029180;28;20396;-63
2022/07/11 02:30:03;;;;;;;4.57;1.27;;;14.00;99.90;;;;;;5029059;28;20026;-63
2022/07/11 02:32:29;;;;;;;1.15;0.85;;;14.10;99.90;;;;;;5029755;28;20033;-63
2022/07/11 02:34:54;;;;;;;0.88;0.82;;;14.00;99.90;;;;;;5029458;28;20441;-63
2022/07/11 02:37:20;;;;;;;1.15;0.70;;;14.00;99.90;;;;;;5029395;28;20490;-63
2022/07/11 02:39:47;;;;;;;2.25;1.25;;;14.00;99.90;;;;;;5038886;28;20030;-64
2022/07/11 02:42:13;;;;;;;2.00;1.00;;;14.00;99.90;;;;;;5033546;28;20100;-64
2022/07/11 02:44:39;;;;;;;1.60;0.88;;;13.90;99.90;;;;;;5035328;28;20526;-64
2022/07/11 02:47:05;;;;;;;2.00;0.98;;;13.90;99.90;;;;;;5033786;28;20033;-62
2022/07/11 02:49:32;;;;;;;1.38;0.80;;;13.90;99.90;;;;;;5026504;28;20044;-62
2022/07/11 02:51:57;;;;;;;3.15;0.80;;;13.90;99.90;;;;;;5030718;28;20029;-62
2022/07/11 02:54:23;;;;;;;1.48;1.00;;;13.90;99.90;;;;;;5023598;28;20025;-63
2022/07/11 02:56:49;;;;;;;1.17;1.08;;;13.90;99.90;;;;;;5031242;28;20053;-63
2022/07/11 02:59:14;;;;;;;4.78;0.70;;;13.80;99.90;;;;;;5031022;28;20029;-62
2022/07/11 03:01:41;;;;;;;2.67;1.10;;;13.80;99.90;;;;;;5021498;28;20311;-63
2022/07/11 03:04:08;;;;;;;0.60;0.60;;;13.80;99.90;;;;;;5025230;28;20028;-62
2022/07/11 03:06:34;;;;;;;1.15;0.80;;;13.90;99.90;;;;;;5028962;28;20458;-63
2022/07/11 03:08:59;;;;;;;0.70;0.70;;;13.90;99.90;;;;;;5029458;28;20033;-62
2022/07/11 03:11:25;;;;;;;1.42;0.75;;;13.90;99.90;;;;;;5036763;28;20112;-63
2022/07/11 03:13:50;;;;;;;2.42;0.77;;;13.80;99.90;;;;;;5030973;28;20127;-62
2022/07/11 03:16:16;;;;;;;0.80;0.77;;;13.70;99.90;;;;;;5033471;28;20025;-61
2022/07/11 03:18:42;;;;;;;0.88;0.88;;;13.70;99.90;;;;;;5019395;28;20029;-63
2022/07/11 03:21:08;;;;;;;2.90;1.10;;;13.70;99.90;;;;;;5035439;28;20127;-64
2022/07/11 03:23:34;;;;;;;1.58;0.90;;;13.80;99.90;;;;;;5031758;28;20397;-64
2022/07/11 03:26:00;;;;;;;1.42;0.90;;;13.80;99.90;;;;;;5025663;28;20069;-63
2022/07/11 03:28:26;;;;;;;2.25;1.17;;;13.70;99.90;;;;;;5039462;28;20029;-63
2022/07/11 03:30:52;;;;;;;3.80;0.88;;;13.70;99.90;;;;;;5031483;28;20037;-64
2022/07/11 03:33:17;;;;;;;5.47;1.30;;;13.70;99.90;;;;;;5041881;28;20033;-63
2022/07/11 03:35:43;;;;;;;1.35;0.82;;;13.70;99.90;;;;;;5036695;28;20039;-63
2022/07/11 03:38:10;;;;;;;1.05;0.65;;;13.70;99.90;;;;;;5030226;28;20079;-64
2022/07/11 03:40:36;;;;;;;2.47;1.00;;;13.70;99.90;;;;;;5040228;28;20030;-63
2022/07/11 03:43:02;;;;;;;2.67;0.98;;;13.80;99.90;;;;;;5031191;28;20040;-63
2022/07/11 03:45:27;;;;;;;1.63;0.85;;;13.70;99.90;;;;;;5033134;28;20112;-63
2022/07/11 03:47:53;;;;;;;1.17;0.50;;;13.70;99.90;;;;;;5030933;28;20045;-63
2022/07/11 03:50:19;;;;;;;1.45;0.80;;;13.60;99.90;;;;;;5041454;28;20025;-63
2022/07/11 03:52:45;;;;;;;1.45;0.93;;;13.50;99.90;;;;;;5039322;28;20450;-63
2022/07/11 03:55:11;;;;;;;0.90;0.70;;;13.50;99.90;;;;;;5028534;28;20025;-63
2022/07/11 03:57:37;;;;;;;1.27;1.02;;;13.60;99.90;;;;;;5031374;28;20029;-63
2022/07/11 04:00:09;;;;;;;1.75;0.73;;;13.60;99.90;;;;;;5037378;28;20075;-63
2022/07/11 04:02:35;;;;;;;0.88;0.80;;;13.60;99.90;;;;;;5034565;28;20040;-63
2022/07/11 04:05:02;;;;;;;1.92;1.00;;;13.70;99.90;;;;;;5027785;28;20389;-63
2022/07/11 04:07:30;;;;;;;1.85;0.60;;;13.70;99.90;;;;;;5028713;28;20398;-63
2022/07/11 04:09:56;;;;;;;3.03;0.80;;;13.70;99.90;;;;;;5041541;28;20119;-63
2022/07/11 04:12:22;;;;;;;1.20;0.65;;;13.70;99.90;;;;;;5036235;28;20037;-63
2022/07/11 04:14:48;;;;;;;1.00;0.60;;;13.60;99.90;;;;;;5032324;28;20076;-63
2022/07/11 04:17:14;;;;;;;0.70;0.70;;;13.60;99.90;;;;;;5032986;28;20464;-62
2022/07/11 04:19:40;;;;;;;2.08;0.93;;;13.70;99.90;;;;;;5033495;28;20046;-63
2022/07/11 04:22:06;;;;;;;5.70;1.17;;;13.70;99.90;;;;;;5033000;28;20488;-62
2022/07/11 04:24:32;;;;;;;1.92;0.98;;;13.80;99.90;;;;;;5036056;28;20488;-63
2022/07/11 04:26:59;;;;;;;1.83;1.02;;;13.80;99.90;;;;;;5036373;28;20448;-62
2022/07/11 04:29:25;;;;;;;1.58;1.10;;;14.00;99.90;;;;;;5030727;28;20048;-64
2022/07/11 04:31:51;;;;;;;2.05;1.02;;;14.00;99.90;;;;;;5037256;28;20114;-63
2022/07/11 04:34:19;;;;;;;0.77;0.77;;;14.10;99.90;;;;;;5021700;28;20055;-63
2022/07/11 04:36:45;;;;;;;2.13;1.23;;;14.10;99.90;;;;;;5038985;28;20127;-63
2022/07/11 04:39:11;;;;;;;4.18;0.98;;;14.20;99.90;;;;;;5036288;28;20152;-63
2022/07/11 04:41:37;;;;;;;1.58;1.00;;;14.10;99.90;;;;;;5038934;28;20119;-62
2022/07/11 04:44:03;;;;;;;3.53;1.10;;;14.30;99.90;;;;;;5036937;28;20029;-63
2022/07/11 04:46:29;;;;;;;3.67;1.33;;;14.30;99.90;;;;;;5031387;28;20052;-63
2022/07/11 04:48:55;;;;;;;3.80;0.82;;;14.20;99.90;;;;;;5040449;28;20029;-63
2022/07/11 04:51:21;;;;;;;3.53;1.02;;;14.10;99.90;;;;;;5036156;28;20033;-63
2022/07/11 04:53:47;;;;;;;1.45;0.85;;;14.10;99.90;;;;;;5039431;28;20029;-63
2022/07/11 04:56:13;;;;;;;2.85;0.82;;;14.10;99.90;;;;;;5029571;28;20106;-63
2022/07/11 04:58:39;;;;;;;4.75;1.75;;;14.10;99.90;;;;;;5031136;28;20029;-63
2022/07/11 05:01:05;;;;;;;3.97;1.40;;;14.20;99.90;;;;;;5025761;28;20034;-64
2022/07/11 05:03:32;;;;;;;2.65;1.40;;;14.10;99.90;;;;;;5032227;28;20044;-64
2022/07/11 05:05:58;;;;;;;3.28;1.60;;;14.00;99.90;;;;;;5033460;28;20037;-64
2022/07/11 05:08:24;;;;;;;1.98;1.40;;;13.90;99.90;;;;;;5030558;28;20382;-64
2022/07/11 05:10:50;;;;;;;1.83;1.13;;;14.00;99.90;;;;;;5034184;28;20465;-63
2022/07/11 05:13:16;;;;;;;3.08;1.35;;;14.00;99.90;;;;;;5029921;28;20032;-63
2022/07/11 05:15:42;;;;;;;5.90;1.80;;;13.90;99.90;;;;;;5036561;28;20194;-63
2022/07/11 05:18:08;;;;;;;4.28;1.27;;;14.10;99.90;;;;;;5029193;28;20477;-64
2022/07/11 05:20:33;;;;;;;5.97;2.10;;;14.20;99.90;;;;;;5034315;28;20052;-64
2022/07/11 05:22:59;;;;;;;2.47;2.05;;;14.20;99.90;;;;;;5027824;28;20095;-64
2022/07/11 05:25:25;;;;;;;2.72;1.85;;;14.20;99.90;;;;;;5038887;28;20028;-64
2022/07/11 05:27:51;;;;;;;5.88;2.25;;;14.20;99.90;;;;;;5041623;28;20044;-64
2022/07/11 05:30:17;;;;;;;4.57;2.03;;;14.10;99.90;;;;;;5030955;28;20029;-64
2022/07/11 05:32:43;;;;;;;6.32;1.70;;;14.00;99.90;;;;;;5030343;28;20040;-63
2022/07/11 05:35:09;;;;;;;4.35;1.73;;;14.10;99.90;;;;;;5041884;28;20031;-64
2022/07/11 05:37:35;;;;;;;1.90;1.38;;;14.30;99.90;;;;;;5038206;28;20116;-63
2022/07/11 05:40:01;;;;;;;4.65;1.77;;;14.20;99.90;;;;;;5032302;28;20112;-64
2022/07/11 05:42:27;;;;;;;13.30;1.80;;;14.30;99.90;;;;;;5032934;28;20037;-64
2022/07/11 05:44:53;;;;;;;7.93;1.65;;;14.30;99.90;;;;;;5031456;28;20032;-64
2022/07/11 05:47:19;;;;;;;4.22;1.77;;;14.30;99.90;;;;;;5030074;28;20072;-64
2022/07/11 05:49:44;;;;;;;2.13;1.35;;;14.50;99.90;;;;;;5028509;28;20021;-64
2022/07/11 05:52:10;;;;;;;9.02;1.73;;;14.50;99.90;;;;;;5030904;28;20029;-63
2022/07/11 05:54:36;;;;;;;1.85;1.42;;;14.50;99.90;;;;;;5029283;28;20436;-63
2022/07/11 05:57:02;;;;;;;3.28;1.58;;;14.60;99.90;;;;;;5038489;28;20168;-63
2022/07/11 05:59:28;;;;;;;3.58;1.40;;;14.60;99.90;;;;;;5035852;28;20022;-64
2022/07/11 06:01:54;;;;;;;3.25;1.55;;;14.70;99.90;;;;;;5025126;28;20112;-63
2022/07/11 06:04:20;;;;;;;4.28;1.70;;;14.90;99.90;;;;;;5033978;28;20390;-63
2022/07/11 06:06:46;;;;;;;6.28;2.15;;;14.90;99.90;;;;;;5034044;28;20037;-63
2022/07/11 06:09:12;;;;;;;2.28;1.63;;;15.00;99.90;;;;;;5028237;28;20029;-61
2022/07/11 06:11:38;;;;;;;3.20;1.60;;;15.00;99.90;;;;;;5033788;28;20052;-63
2022/07/11 06:14:05;;;;;;;3.33;1.70;;;15.00;99.90;;;;;;5028823;28;20026;-63
2022/07/11 06:16:31;;;;;;;5.75;1.52;;;15.10;99.90;;;;;;5024145;28;20044;-63
2022/07/11 06:18:58;;;;;;;3.10;1.60;;;15.20;99.90;;;;;;5037445;28;20053;-63
2022/07/11 06:21:24;;;;;;;4.07;1.30;;;15.30;99.90;;;;;;5028350;28;20116;-64
2022/07/11 06:23:50;;;;;;;2.88;1.40;;;15.40;99.90;;;;;;5034213;28;20477;-63
2022/07/11 06:26:17;;;;;;;5.38;1.60;;;15.50;99.90;;;;;;5038106;28;20035;-60
2022/07/11 06:28:42;;;;;;;3.15;1.52;;;15.60;99.90;;;;;;5033863;28;20135;-63
2022/07/11 06:31:08;;;;;;;3.28;1.63;;;15.70;99.90;;;;;;5026752;28;20104;-63
2022/07/11 06:33:35;;;;;;;5.78;1.40;;;15.70;99.90;;;;;;5028971;28;20059;-63
2022/07/11 06:36:01;;;;;;;4.32;1.33;;;15.90;99.90;;;;;;5032199;28;20452;-63
2022/07/11 06:38:29;;;;;;;5.68;2.00;;;15.90;99.90;;;;;;5029780;28;20036;-63
2022/07/11 06:40:55;;;;;;;5.55;2.38;;;16.00;99.90;;;;;;5026657;28;20021;-63
2022/07/11 06:43:21;;;;;;;4.20;1.80;;;16.10;99.90;;;;;;5038328;28;20091;-64
2022/07/11 06:45:47;;;;;;;3.95;2.22;;;16.20;99.90;;;;;;5032120;28;20553;-64
2022/07/11 06:48:13;;;;;;;5.68;1.85;;;16.40;99.90;;;;;;5027328;28;20090;-65
2022/07/11 06:50:39;;;;;;;8.02;2.47;;;16.40;99.90;;;;;;5027914;28;20474;-65
2022/07/11 06:53:05;;;;;;;8.73;1.88;;;16.50;99.90;;;;;;5030308;28;20037;-65
2022/07/11 06:55:32;;;;;;;2.20;1.55;;;16.60;99.90;;;;;;5031277;28;20026;-64
2022/07/11 06:57:58;;;;;;;4.40;1.40;;;16.80;99.90;;;;;;5025493;28;20018;-64
2022/07/11 07:00:24;;;;;;;3.95;2.60;;;16.80;99.90;;;;;;5036007;28;20033;-64
2022/07/11 07:02:49;;;;;;;5.70;2.10;;;16.80;99.90;;;;;;5042627;28;20032;-63
2022/07/11 07:05:15;;;;;;;4.13;1.30;;;16.90;99.90;;;;;;5036166;28;20490;-63
2022/07/11 07:07:41;;;;;;;4.45;2.00;;;17.00;99.90;;;;;;5036576;28;20374;-63
2022/07/11 07:10:07;;;;;;;2.53;1.50;;;17.10;99.90;;;;;;5034618;28;20101;-64
2022/07/11 07:12:36;;;;;;;2.65;1.48;;;17.30;99.90;;;;;;5028583;28;20132;-64
2022/07/11 07:15:02;;;;;;;6.72;2.17;;;17.40;99.90;;;;;;5033962;28;20087;-64
2022/07/11 07:17:28;;;;;;;3.22;1.75;;;17.50;99.90;;;;;;5038091;28;20029;-64
2022/07/11 07:19:54;;;;;;;5.95;1.90;;;17.60;99.90;;;;;;5034025;28;20053;-64
2022/07/11 07:22:19;;;;;;;3.60;1.80;;;17.60;99.90;;;;;;5033613;28;20017;-64
2022/07/11 07:24:45;;;;;;;3.58;1.40;;;17.70;99.90;;;;;;5032595;28;20033;-64
2022/07/11 07:27:11;;;;;;;5.93;1.67;;;17.70;99.90;;;;;;5029140;28;20033;-65
2022/07/11 07:29:38;;;;;;;13.98;2.72;;;17.90;99.90;;;;;;5032756;28;20037;-65
2022/07/11 07:32:04;;;;;;;3.95;1.65;;;18.00;99.90;;;;;;5038308;28;20174;-65
2022/07/11 07:34:30;;;;;;;2.80;1.40;;;18.10;99.90;;;;;;5037770;28;20033;-65
2022/07/11 07:36:55;;;;;;;5.07;1.75;;;18.20;99.90;;;;;;5037776;28;20037;-64
2022/07/11 07:39:21;;;;;;;3.63;1.85;;;18.30;99.90;;;;;;5045523;28;20076;-64
2022/07/11 07:41:47;;;;;;;6.15;1.25;;;18.40;99.90;;;;;;5039581;28;20112;-64
2022/07/11 07:44:12;;;;;;;6.10;1.40;;;18.50;99.90;;;;;;5037440;28;20409;-63
2022/07/11 07:46:38;;;;;;;2.63;1.20;;;18.50;99.90;;;;;;5031920;28;20377;-64
2022/07/11 07:49:04;;;;;;;2.35;1.15;;;18.60;99.90;;;;;;5033649;28;20029;-64
2022/07/11 07:51:30;;;;;;;2.47;1.17;;;18.70;99.90;;;;;;5031759;28;20124;-64
2022/07/11 07:53:56;;;;;;;2.65;1.65;;;18.80;99.90;;;;;;5026891;28;20032;-64
2022/07/11 07:56:21;;;;;;;2.88;1.02;;;19.00;99.90;;;;;;5025444;28;20036;-63
2022/07/11 07:58:48;;;;;;;3.10;1.20;;;19.00;99.90;;;;;;5028626;28;20033;-63
2022/07/11 08:04:07;;;;;;;3.90;1.20;;;19.20;99.90;;;;;;5020159;28;20176;-64
2022/07/11 08:06:34;;;;;;;2.10;1.13;;;19.50;99.90;;;;;;5025577;28;20045;-63
2022/07/11 08:09:01;;;;;;;2.47;1.08;;;19.60;99.90;;;;;;5025290;28;20021;-62
2022/07/11 08:11:27;;;;;;;6.35;1.30;;;19.70;99.90;;;;;;5032514;28;20091;-64
2022/07/11 08:13:52;;;;;;;7.32;1.60;;;19.90;99.90;;;;;;5024828;28;20033;-64
2022/07/11 08:16:18;;;;;;;6.05;1.10;;;19.90;99.90;;;;;;5029395;28;20052;-64
2022/07/11 08:18:44;;;;;;;4.47;1.10;;;20.10;99.90;;;;;;5023810;28;20107;-64
2022/07/11 08:21:10;;;;;;;5.05;0.90;;;20.20;99.90;;;;;;5020341;28;20088;-64
2022/07/11 08:23:36;;;;;;;2.80;0.93;;;20.40;99.90;;;;;;5026096;28;20060;-64
2022/07/11 08:26:02;;;;;;;4.40;1.60;;;20.50;99.90;;;;;;5019952;28;20123;-64
2022/07/11 08:28:28;;;;;;;2.25;1.27;;;20.60;99.90;;;;;;5031106;28;20489;-63
2022/07/11 08:30:53;;;;;;;3.53;1.40;;;20.70;99.90;;;;;;5021481;28;20025;-65
2022/07/11 08:33:20;;;;;;;2.05;0.70;;;20.80;99.90;;;;;;5031234;28;20387;-65
2022/07/11 08:35:45;;;;;;;4.53;1.20;;;20.80;99.90;;;;;;5029794;28;20469;-65
2022/07/11 08:38:12;;;;;;;4.00;0.93;;;20.90;99.90;;;;;;5025199;28;20037;-64
2022/07/11 08:40:42;;;;;;;4.20;0.90;;;21.10;99.90;;;;;;5025647;28;20033;-65
2022/07/11 08:43:16;;;;;;;3.75;1.08;;;21.30;99.90;;;;;;5015796;28;20045;-64
2022/07/11 08:45:42;;;;;;;8.13;1.20;;;21.50;99.90;;;;;;5027906;28;20496;-64
2022/07/11 08:48:09;;;;;;;6.25;1.48;;;21.60;99.90;;;;;;5018752;28;20168;-64
2022/07/11 08:50:35;;;;;;;3.38;1.15;;;21.60;99.90;;;;;;5021101;28;20121;-64
2022/07/11 08:53:03;;;;;;;2.25;0.90;;;21.80;99.90;;;;;;5019028;28;20034;-64
2022/07/11 08:55:29;;;;;;;1.98;0.70;;;22.00;99.90;;;;;;5027330;28;20028;-63
2022/07/11 08:57:55;;;;;;;6.47;0.65;;;22.00;99.90;;;;;;5019447;28;20029;-63
2022/07/11 09:00:21;;;;;;;3.58;1.27;;;22.20;99.90;;;;;;5026604;28;20124;-63
2022/07/11 09:02:49;;;;;;;3.58;1.00;;;22.50;99.90;;;;;;5039704;28;20036;-63
2022/07/11 09:05:15;;;;;;;5.40;1.08;;;22.60;99.90;;;;;;5028287;28;20986;-64
2022/07/11 09:07:48;;;;;;;5.03;0.70;;;23.00;99.90;;;;;;5029242;28;20122;-64
2022/07/11 09:10:16;;;;;;;4.25;0.88;;;23.10;99.90;;;;;;5028042;28;20030;-63
2022/07/11 09:13:04;;;;;;;1.85;0.60;;;23.10;99.90;;;;;;5027722;28;20025;-66
2022/07/11 09:15:38;;;;;;;2.05;0.73;;;23.30;99.90;;;;;;5032419;28;20025;-63
2022/07/11 09:18:05;;;;;;;1.35;0.60;;;23.40;99.90;;;;;;5026904;28;20033;-62
2022/07/11 09:26:33;;;;;;;4.45;1.30;;;23.70;99.90;;;;;;5028632;28;20056;-64
2022/07/11 09:29:24;;;;;;;2.30;0.80;;;23.90;99.90;;;;;;5024469;28;20052;-64
2022/07/11 09:31:50;;;;;;;3.55;0.93;;;23.80;99.90;;;;;;5027440;28;20430;-63
2022/07/11 09:34:29;;;;;;;2.85;1.10;;;23.80;99.90;;;;;;5028242;28;20068;-64
2022/07/11 09:36:55;;;;;;;1.85;0.63;;;23.70;99.90;;;;;;5028364;28;20021;-64
2022/07/11 09:39:23;;;;;;;4.53;0.70;;;23.80;99.90;;;;;;5026739;28;20124;-66
2022/07/11 09:41:51;;;;;;;3.13;1.10;;;24.00;99.90;;;;;;5025601;28;20030;-64
2022/07/11 09:44:27;;;;;;;0.98;0.50;;;24.10;99.80;;;;;;5027044;28;20612;-64
2022/07/11 09:46:53;;;;;;;3.17;0.77;;;24.00;99.40;;;;;;5027203;28;20643;-65
2022/07/11 09:49:39;;;;;;;3.35;1.10;;;24.00;99.70;;;;;;5025651;28;20033;-65
2022/07/11 09:52:17;;;;;;;3.08;0.95;;;24.00;98.80;;;;;;5025393;28;20033;-64
2022/07/11 09:55:00;;;;;;;1.98;0.75;;;24.00;99.20;;;;;;5029456;28;20033;-65
2022/07/11 09:57:33;;;;;;;1.08;0.70;;;24.20;98.70;;;;;;5028142;28;20025;-65
2022/07/11 10:00:00;;;;;;;1.02;0.60;;;24.30;98.40;;;;;;5022157;28;20538;-64
2022/07/11 10:02:26;;;;;;;2.50;0.90;;;24.30;98.00;;;;;;5033189;28;20044;-64
2022/07/11 10:04:52;;;;;;;4.05;1.00;;;24.30;98.50;;;;;;5032162;28;20088;-64
2022/07/11 10:07:18;;;;;;;4.22;0.93;;;24.30;97.90;;;;;;5025404;28;20061;-64
2022/07/11 10:09:44;;;;;;;2.05;1.35;;;24.40;98.00;;;;;;5031058;28;20502;-65
2022/07/11 10:12:10;;;;;;;7.88;2.60;;;24.50;98.10;;;;;;5021061;28;20025;-65
2022/07/11 10:14:38;;;;;;;1.17;0.77;;;24.70;97.90;;;;;;5027794;28;20385;-65
2022/07/11 10:17:14;;;;;;;1.23;0.68;;;24.80;97.10;;;;;;5026850;28;20090;-65
2022/07/11 10:19:55;;;;;;;3.28;0.65;;;24.80;97.00;;;;;;5026509;28;20136;-65
2022/07/11 10:22:31;;;;;;;0.70;0.63;;;24.90;97.20;;;;;;5024018;28;20409;-65
2022/07/11 10:25:10;;;;;;;6.50;1.20;;;24.90;96.70;;;;;;5024099;28;20026;-65
2022/07/11 10:27:43;;;;;;;1.75;0.82;;;25.10;96.20;;;;;;5029108;28;20052;-63
2022/07/11 10:30:09;;;;;;;3.33;1.80;;;25.20;96.20;;;;;;5026783;28;20021;-64
2022/07/11 10:32:58;;;;;;;3.47;0.98;;;25.20;95.40;;;;;;5021703;28;20459;-63
2022/07/11 10:35:24;;;;;;;4.18;0.90;;;25.20;95.30;;;;;;5027093;28;20493;-64
2022/07/11 10:37:53;;;;;;;3.83;1.52;;;25.40;95.70;;;;;;5031697;28;20030;-65
2022/07/11 10:40:52;;;;;;;3.95;1.30;;;25.30;95.60;;;;;;5026027;28;20500;-64
2022/07/11 10:43:35;;;;;;;2.75;0.93;;;25.30;95.80;;;;;;5025247;28;20128;-66
2022/07/11 10:46:04;;;;;;;6.13;1.30;;;25.10;95.70;;;;;;5023313;28;20099;-64
2022/07/11 10:48:32;;;;;;;2.55;0.90;;;25.50;95.20;;;;;;5027338;28;20030;-64
2022/07/11 10:51:03;;;;;;;1.35;0.60;;;25.50;95.30;;;;;;5027020;28;20022;-64
2022/07/11 10:53:44;;;;;;;1.75;1.08;;;25.70;94.70;;;;;;5023277;28;20037;-64
2022/07/11 10:56:42;;;;;;;2.77;1.10;;;25.70;94.50;;;;;;5023325;28;20075;-64
2022/07/11 10:59:14;;;;;;;1.88;1.00;;;25.90;94.10;;;;;;5023446;28;20113;-65
2022/07/11 11:02:10;;;;;;;2.58;0.93;;;26.00;94.10;;;;;;5024317;28;20034;-65
2022/07/11 11:04:59;;;;;;;1.73;0.60;;;26.10;93.30;;;;;;5023015;28;20108;-64
2022/07/11 11:07:42;;;;;;;1.95;0.75;;;26.20;93.60;;;;;;5031723;28;20068;-65
2022/07/11 11:10:17;;;;;;;1.00;0.80;;;26.50;92.30;;;;;;5023892;28;20373;-64
2022/07/11 11:13:09;;;;;;;2.25;0.70;;;26.70;91.40;;;;;;5026916;28;20429;-64
2022/07/11 11:15:43;;;;;;;;;;;27.30;90.70;;;;;;5020811;28;20049;-64
2022/07/11 11:18:24;;;;;;;3.20;0.88;;;27.10;89.40;;;;;;5024964;28;19916;-64
2022/07/11 11:21:02;;;;;;;4.18;0.90;;;27.60;88.10;;;;;;5038900;28;20041;-65
2022/07/11 11:23:38;;;;;;;1.45;1.20;;;28.10;86.50;;;;;;5031467;28;20509;-63
2022/07/11 11:26:07;;;;;;;1.77;0.80;;;28.20;84.50;;;;;;5025899;28;20655;-64
2022/07/11 11:28:33;;;;;;;1.15;0.95;;;28.30;82.50;;;;;;5028965;28;20047;-64
2022/07/11 11:31:01;;;;;;;1.30;0.60;;;27.80;81.70;;;;;;5027078;28;20067;-64
2022/07/11 11:33:29;;;;;;;3.70;1.23;;;27.60;82.10;;;;;;5020448;28;20814;-65
2022/07/11 11:36:03;;;;;;;1.65;0.50;;;27.80;82.00;;;;;;5027381;28;20072;-65
2022/07/11 11:38:32;;;;;;;3.80;0.93;;;28.30;81.40;;;;;;5029810;28;20029;-65
2022/07/11 11:40:58;;;;;;;2.78;0.82;;;28.80;77.80;;;;;;5022978;28;20075;-67
2022/07/11 11:43:25;;;;;;;2.72;0.82;;;29.00;76.00;;;;;;5027140;28;20473;-64
2022/07/11 11:45:52;;;;;;;1.98;0.77;;;29.30;74.90;;;;;;5024718;28;20444;-63
2022/07/11 11:48:37;;;;;;;3.00;0.70;;;29.60;73.70;;;;;;5028751;28;20037;-64
2022/07/11 11:51:03;;;;;;;2.88;0.80;;;29.70;72.60;;;;;;5027576;28;20385;-65
2022/07/11 11:53:36;;;;;;;2.70;0.80;;;29.70;71.30;;;;;;5030721;28;20021;-64
2022/07/11 11:56:15;;;;;;;4.70;0.80;;;29.30;69.50;;;;;;5026072;28;20339;-63
2022/07/11 11:58:43;;;;;;;3.95;1.08;;;30.10;69.30;;;;;;5030743;28;20036;-63
2022/07/11 12:01:09;;;;;;;2.60;0.70;;;30.00;68.30;;;;;;5024295;28;20543;-63
2022/07/11 12:03:56;;;;;;;3.15;0.80;;;29.80;68.40;;;;;;5034372;28;20112;-62
2022/07/11 12:06:27;;;;;;;2.88;0.80;;;30.00;67.20;;;;;;5023888;28;20391;-64
2022/07/11 12:08:59;;;;;;;4.32;1.00;;;30.30;66.50;;;;;;5029013;28;20032;-64
2022/07/11 12:11:26;;;;;;;2.17;1.05;;;30.80;64.10;;;;;;5030455;28;20037;-63
2022/07/11 12:14:09;;;;;;;2.45;0.65;;;30.60;63.40;;;;;;5020983;28;20030;-64
2022/07/11 12:16:41;;;;;;;2.72;1.40;;;30.80;62.90;;;;;;5024137;28;20018;-64
2022/07/11 12:19:08;;;;;;;2.47;0.77;;;31.20;60.20;;;;;;5024942;28;20026;-63
2022/07/11 12:21:35;;;;;;;1.70;1.10;;;31.20;59.90;;;;;;5028933;28;20481;-65
2022/07/11 12:24:06;;;;;;;2.58;0.70;;;31.50;59.40;;;;;;5027311;28;20025;-64
2022/07/11 12:26:37;;;;;;;1.58;0.95;;;31.20;58.50;;;;;;5029730;28;20029;-65
2022/07/11 12:29:18;;;;;;;3.08;1.13;;;31.30;58.30;;;;;;5014664;28;20026;-65
2022/07/11 12:31:50;;;;;;;;;;;31.50;56.40;;;;;;5024676;28;20140;-64
2022/07/11 12:34:21;;;;;;;1.20;0.70;;;31.50;56.60;;;;;;5019701;28;20575;-65
2022/07/11 12:36:47;;;;;;;1.38;0.93;;;31.70;55.80;;;;;;5026433;28;20386;-65
2022/07/11 12:39:23;;;;;;;1.98;0.70;;;32.20;55.40;;;;;;5022893;28;20058;-64
2022/07/11 12:41:51;;;;;;;0.95;0.60;;;31.60;54.80;;;;;;5022886;28;20559;-65
2022/07/11 12:47:09;;;;;;;1.23;0.70;;;32.20;53.80;;;;;;5025057;28;20187;-65
2022/07/11 12:49:35;;;;;;;3.63;0.75;;;32.40;53.80;;;;;;5020395;28;20518;-66
2022/07/11 12:52:01;;;;;;;1.17;0.60;;;32.40;52.80;;;;;;5027377;28;20370;-65
2022/07/11 12:54:31;;;;;;;4.20;0.80;;;32.70;52.70;;;;;;5020184;28;20025;-65
2022/07/11 12:56:57;;;;;;;4.13;1.20;;;32.70;53.00;;;;;;5027267;28;20025;-65
2022/07/11 12:59:25;;;;;;;3.95;0.98;;;32.60;52.60;;;;;;5024876;28;20033;-65
2022/07/11 13:02:05;;;;;;;2.55;0.70;;;32.80;51.80;;;;;;5026207;28;20381;-65
2022/07/11 13:04:37;;;;;;;0.80;0.70;;;33.00;51.20;;;;;;5021135;28;20044;-65
2022/07/11 13:10:03;;;;;;;1.38;0.60;;;32.50;51.30;;;;;;5027630;28;19963;-65